Aeroporto :
LOGIN :

Iscrizione | Disclaimer

   EN    FR    IT 

 










Sommario :    VFR   VFR Marginale   IFR   IFR Intensivo   IFR Molto Intensivo
Visibilità : 
Base nubi : 
>= 8 km
>= 3000ft
5 / 8 km
1000 / 3000 ft
1500m / 5 km
500 / 1000 ft
800 / 1500m
200 / 500 ft
< 800m
< 200 ft
Simboli :   Temporali  Nebbia  Neve Forte  Precipitazioni Forti  Vento > 20 kt
SIGMETs :   Varie  Temporali  Ghiacco  Turbolenza  Onda orograficha  Ceneri Vulcaniche






- Altitudine del aeroporto : 20 ft


EBFN - Koksijde

ULTIMO METAR :
  • 161155Z 23013G25KT 9999 -SHRA FEW014 SCT018TCU BKN080 18/15 Q1010 WHT WHT TEMPO GRN

METARs OBSOLETI :
  • 161125Z 22013KT 9999 VCSH FEW012 SCT016TCU BKN080 18/14 Q1010 WHT WHT TEMPO GRN
  • 161055Z 23009KT 9999 VCSH FEW012 SCT016TCU BKN080 18/15 Q1010 WHT WHT TEMPO GRN
  • 161025Z 21009KT 9999 -SHRA FEW010 SCT016TCU BKN080 16/15 Q1010 WHT WHT TEMPO GRN
  • 160955Z 22009KT 8000 -SHRA FEW008 SCT016TCU BKN080 16/15 Q1010 WHT WHT TEMPO GRN
  • 160951Z 22009KT 8000 -SHRA FEW008 SCT016TCU BKN080 16/15 Q1009 WHT WHT TEMPO GRN
  • 160925Z 22009KT 4500 SHRA FEW008 BKN016TCU BKN042 16/15 Q1009 GRN GRN TEMPO YLO
  • 160919Z 22009KT 4500 SHRA FEW013 BKN016TCU BKN042 16/15 Q1009 GRN GRN TEMPO YLO
  • 160903Z 21008KT 3500 SHRA FEW013 BKN016TCU BKN042 16/15 Q1009 YLO YLO TEMPO GRN
  • 160825Z 21010KT 9999 VCSH FEW013 SCT016TCU BKN080 16/15 Q1009 WHT WHT TEMPO GRN
  • 160803Z 22008KT 5000 -SHRA FEW013 BKN016TCU SCT030 16/15 Q1009 WHT WHT TEMPO GRN
  • 160742Z 21009KT 4000 SHRA FEW013 BKN015 16/15 Q1009 GRN GRN TEMPO YLO

TAF TAF EBFN
Valido dal 16 a 10 ore il 16 a 19 ore UTC


160841Z 1610/1619 22012KT 9999 BKN023 BKN060
TEMPO 1610/1619 6000 -SHRA SCT020TCU BKN060
PROB30
TEMPO 1610/1614 22018G28KT 3500 SHRA -TSRA SCT013 SCT018CB BKN060



MetMap, La meteo Aeronautica in un colpo d'occhio ! - Copyright ORBIFLY Dicembre 2007 - Disclaimer

ORBIFLY MET'MAP TEAM :

Programmazione e sviluppo : Alexandra Zaïnal
Concezione : Baudouin d'Aumeries
Supporto tecnico e logistico : Manuel Goepfert
Aiuto : Marc-Olivier Méhu
Aiuto per la traduzione : Arnaldo La Scala




FONTI E CREDITI :

   NOAA